Flight Track Log - Related Links

Times and Time Zones

All times are in EDT time to prevent confusion due to time zone crossing. See the KAP550 flight status page for this flight to view local times or setup timezone preferences in your user account.

Time Position Orientation Groundspeed Altitude Reporting Facility
EDT Latitude Longitude Course Direction KTS MPH feet Rate Location/Type
Thu 10:49:52 AM 42.7381 -73.8044 224° Southwest 91 105 1,100  Level Boston Center
Thu 10:50:58 AM 42.7183 -73.8300 224° Southwest 106 122 2,600 1,286 Climbing Boston Center
Thu 10:51:16 AM 42.7169 -73.8389 258° West 102 117 2,900 600 Climbing Boston Center
Thu 10:51:58 AM 42.7058 -73.8636 239° Southwest 105 121 3,200 492 Climbing Boston Center
Thu 10:52:17 AM 42.7053 -73.8736 266° West 101 116 3,400 590 Climbing Boston Center
Thu 10:52:59 AM 42.7306 -73.8922 332° Northwest 172 198 3,800 700 Climbing Boston Center
Thu 10:53:17 AM 42.7456 -73.8897 North 165 190 4,100 759 Climbing Boston Center
Thu 10:54:18 AM 42.7906 -73.8933 357° North 162 186 4,800 694 Climbing Boston Center
Thu 10:55:18 AM 42.8339 -73.8975 356° North 156 180 5,500 661 Climbing Boston Center
Thu 10:56:07 AM 42.8706 -73.9019 355° North 153 176 6,000 656 Climbing Boston Center
Thu 10:56:22 AM 42.8806 -73.9014 North 155 178 6,200 590 Climbing Boston Center
Thu 10:57:08 AM 42.9131 -73.9047 356° North 155 178 6,600 689 Climbing Boston Center
Thu 10:57:23 AM 42.9231 -73.9047 360° North 154 177 6,900 689 Climbing Boston Center
Thu 10:58:09 AM 42.9556 -73.9075 356° North 152 175 7,300 590 Climbing Boston Center
Thu 10:58:24 AM 42.9650 -73.9075 360° North 151 174 7,500 655 Climbing Boston Center
Thu 10:59:04 AM 42.9939 -73.9089 358° North 150 173 7,900 689 Climbing Boston Center
Thu 10:59:25 AM 43.0072 -73.9108 354° North 152 175 8,200 585 Climbing Boston Center
Thu 11:00:26 AM 43.0533 -73.9142 357° North 154 177 8,700 492 Climbing Boston Center
Thu 11:01:27 AM 43.0964 -73.9272 348° North 158 182 9,200 197 Climbing Boston Center
Thu 11:02:28 AM 43.1406 -73.9503 339° North 170 196 9,100 -50 Descending Boston Center
Thu 11:03:28 AM 43.1894 -73.9733 341° North 185 213 9,100  Level Boston Center
Thu 11:04:32 AM 43.2414 -73.9989 340° North 184 212 9,100 -49 Level Boston Center
Thu 11:05:30 AM 43.2881 -74.0208 341° North 177 204 9,000 347 Descending Boston Center
Thu 11:06:33 AM 43.3308 -74.0406 341° North 162 186 9,800 532 Climbing Boston Center
Thu 11:07:34 AM 43.3647 -74.0567 341° North 133 153 10,100 197 Climbing Boston Center
Thu 11:08:35 AM 43.4011 -74.0747 340° North 149 171 10,200 49 Climbing Boston Center
Thu 11:09:36 AM 43.4456 -74.0972 340° North 163 188 10,200  Level Boston Center
Thu 11:10:38 AM 43.4950 -74.1206 341° North 178 205 10,200  Level Boston Center
Thu 11:11:39 AM 43.5525 -74.1481 341° North 183 211 10,200 197 Level Boston Center
Thu 11:12:40 AM 43.5956 -74.1697 340° North 167 192 10,600 393 Climbing Boston Center
Thu 11:13:41 AM 43.6367 -74.1897 341° North 157 181 11,000 290 Climbing Boston Center
Thu 11:14:44 AM 43.6753 -74.2100 339° North 151 174 11,200 97 Climbing Boston Center
Thu 11:15:45 AM 43.7181 -74.2317 340° North 159 183 11,200  Level Boston Center
Thu 11:16:46 AM 43.7642 -74.2531 341° North 169 194 11,200  Level Boston Center
Thu 11:17:47 AM 43.8106 -74.2744 342° North 174 200 11,200  Level Boston Center
Thu 11:18:48 AM 43.8558 -74.2997 338° Northwest 175 201 11,200 -149 Level Boston Center
Thu 11:19:48 AM 43.9022 -74.3233 340° North 177 204 10,900 -439 Descending Boston Center
Thu 11:20:51 AM 43.9606 -74.3614 335° Northwest 188 216 10,300 -537 Descending Boston Center
Thu 11:21:51 AM 44.0081 -74.3939 334° Northwest 190 219 9,800 -484 Descending Boston Center
Thu 11:22:55 AM 44.0564 -74.4244 336° Northwest 191 220 9,300 -435 Descending Boston Center
Thu 11:23:55 AM 44.1044 -74.4569 334° Northwest 191 220 8,900 -347 Descending Boston Center
Thu 11:24:56 AM 44.1542 -74.4906 334° Northwest 196 226 8,600 -446 Descending Boston Center
Thu 11:25:56 AM 44.2019 -74.5219 335° Northwest 193 222 8,000 -488 Descending Boston Center
Thu 11:26:59 AM 44.2497 -74.5547 334° Northwest 192 221 7,600 -387 Descending Boston Center
Thu 11:28:00 AM 44.2983 -74.5881 334° Northwest 194 223 7,200 -344 Descending Boston Center
Thu 11:29:01 AM 44.3486 -74.6219 334° Northwest 197 227 6,900 -146 Descending Boston Center
Thu 11:30:03 AM 44.4050 -74.6600 334° Northwest 192 221 6,900  Level Boston Center
Thu 11:31:03 AM 44.4492 -74.6914 333° Northwest 184 212 6,900 49 Level Boston Center
Thu 11:32:06 AM 44.4936 -74.7228 333° Northwest 179 206 7,000  Climbing Boston Center
Thu 11:33:06 AM 44.5378 -74.7528 334° Northwest 179 206 6,900 -344 Descending Boston Center
Thu 11:34:08 AM 44.5853 -74.7853 334° Northwest 183 211 6,300 -683 Descending Boston Center
Thu 11:35:09 AM 44.6375 -74.8161 337° Northwest 194 223 5,500 -645 Descending Boston Center
Thu 11:36:09 AM 44.6903 -74.8531 334° Northwest 202 232 5,000 -339 Descending Boston Center
Thu 11:37:13 AM 44.7422 -74.9014 327° Northwest 202 232 4,800 -188 Descending Boston Center
Thu 11:39:00 AM 44.8132 -74.8607 North  Level FlightAware Approximate

Login

Don't have an account? Register now (free) for customized features, flight alerts, and more!